createdAt,value
2019-05-05T00:05:08.563Z,1.90
2019-05-05T00:08:16.895Z,1.68
2019-05-05T00:11:46.327Z,1.68
2019-05-05T00:15:08.248Z,1.62
2019-05-05T00:18:17.466Z,1.62
2019-05-05T00:21:25.552Z,1.63
2019-05-05T00:24:35.445Z,1.36
2019-05-05T00:27:42.713Z,1.36
2019-05-05T00:30:50.564Z,1.49
2019-05-05T00:33:58.499Z,1.27
2019-05-05T00:37:06.596Z,1.27
2019-05-05T00:40:15.113Z,1.40
2019-05-05T00:43:25.237Z,1.40
2019-05-05T00:46:48.236Z,1.40
2019-05-05T00:49:56.844Z,1.40
2019-05-05T00:53:05.347Z,1.60
2019-05-05T00:56:14.409Z,1.71
2019-05-05T00:59:25.218Z,1.80
2019-05-05T01:02:48.060Z,1.80
2019-05-05T01:06:11.396Z,1.85
2019-05-05T01:09:22.021Z,1.78
2019-05-05T01:12:30.282Z,1.79
2019-05-05T01:15:38.606Z,1.92
2019-05-05T01:18:46.537Z,1.89
2019-05-05T01:21:54.549Z,1.97
2019-05-05T01:25:02.540Z,2.04
2019-05-05T01:28:10.561Z,2.09
2019-05-05T01:31:20.265Z,1.99
2019-05-05T01:34:35.261Z,1.99
2019-05-05T01:37:49.129Z,2.11
2019-05-05T01:41:16.253Z,2.11
2019-05-05T01:44:24.721Z,2.09
2019-05-05T01:47:34.596Z,2.15
2019-05-05T01:50:42.507Z,2.15
2019-05-05T01:53:50.424Z,1.91
2019-05-05T01:56:58.569Z,2.04
2019-05-05T02:00:06.649Z,2.03
2019-05-05T02:03:14.819Z,1.89
2019-05-05T02:06:24.865Z,1.89
2019-05-05T02:09:35.381Z,1.91
2019-05-05T02:12:44.721Z,2.03
2019-05-05T02:15:52.672Z,2.05
2019-05-05T02:19:00.551Z,2.05
2019-05-05T02:22:08.561Z,2.01
2019-05-05T02:25:16.640Z,1.93
2019-05-05T02:28:26.359Z,1.93
2019-05-05T02:31:55.271Z,2.03
2019-05-05T02:35:06.367Z,2.02
2019-05-05T02:38:15.682Z,2.01
2019-05-05T02:41:25.415Z,2.01
2019-05-05T02:49:15.107Z,2.08
2019-05-05T02:52:24.591Z,2.05
2019-05-05T02:55:34.692Z,2.06
2019-05-05T02:58:41.499Z,2.08
2019-05-05T03:01:55.407Z,2.15
2019-05-05T03:05:04.177Z,2.22
2019-05-05T03:08:13.866Z,2.19
2019-05-05T03:11:23.729Z,2.16
2019-05-05T03:14:31.707Z,2.15
2019-05-05T03:17:39.511Z,2.15
2019-05-05T03:21:01.243Z,2.18
2019-05-05T03:23:57.510Z,2.17
2019-05-05T03:27:05.560Z,2.29
2019-05-05T03:30:15.396Z,2.21
2019-05-05T03:33:25.044Z,2.21
2019-05-05T03:36:33.902Z,2.25
2019-05-05T03:39:46.223Z,2.13
2019-05-05T03:43:01.709Z,2.21
2019-05-05T03:46:10.502Z,2.15
2019-05-05T03:49:18.629Z,2.12
2019-05-05T03:52:26.533Z,2.09
2019-05-05T03:55:35.917Z,2.17
2019-05-05T03:58:44.181Z,2.17
2019-05-05T04:02:05.354Z,1.93
2019-05-05T04:05:30.905Z,1.90
2019-05-05T04:08:38.737Z,1.78
2019-05-05T04:11:46.913Z,1.76
2019-05-05T04:14:55.370Z,1.83
2019-05-05T04:18:15.352Z,1.85
2019-05-05T04:21:31.311Z,1.81
2019-05-05T04:24:34.169Z,1.76
2019-05-05T04:31:49.890Z,1.72
2019-05-05T04:34:57.614Z,1.94
2019-05-05T04:38:07.238Z,1.93
2019-05-05T04:41:15.372Z,2.08
2019-05-05T04:44:23.714Z,2.38
2019-05-05T04:47:35.101Z,2.47
2019-05-05T04:51:05.249Z,2.43
2019-05-05T04:54:27.585Z,2.94
2019-05-05T04:57:35.550Z,2.86
2019-05-05T05:00:44.117Z,3.07
2019-05-05T05:04:03.695Z,3.07
2019-05-05T05:07:13.528Z,3.50
2019-05-05T05:10:20.819Z,3.73
2019-05-05T05:13:28.559Z,3.10
2019-05-05T05:16:37.239Z,3.73
2019-05-05T05:19:45.372Z,3.73
2019-05-05T05:22:54.428Z,3.25
2019-05-05T05:26:05.114Z,3.76
2019-05-05T05:29:14.879Z,3.76
2019-05-05T05:32:24.510Z,3.87
2019-05-05T05:35:33.472Z,3.77
2019-05-05T05:38:43.720Z,3.92
2019-05-05T05:41:53.900Z,3.97
2019-05-05T05:45:09.307Z,3.90
2019-05-05T05:48:23.676Z,3.71
2019-05-05T05:51:31.668Z,3.81
2019-05-05T05:54:41.515Z,4.19
2019-05-05T05:57:49.547Z,4.70
2019-05-05T06:00:58.465Z,4.72
2019-05-05T06:04:05.329Z,4.72
2019-05-05T06:07:14.196Z,4.36
2019-05-05T06:10:24.460Z,4.97
2019-05-05T06:13:33.256Z,5.15
2019-05-05T06:16:40.917Z,4.54
2019-05-05T06:19:49.248Z,4.02
2019-05-05T06:22:58.552Z,4.18
2019-05-05T06:26:07.516Z,3.87
2019-05-05T06:29:15.543Z,4.54
2019-05-05T06:32:23.867Z,5.31
2019-05-05T06:35:33.750Z,5.31
2019-05-05T06:38:43.553Z,5.88
2019-05-05T06:42:00.913Z,5.88
2019-05-05T06:45:16.445Z,5.86
2019-05-05T06:48:24.479Z,5.83
2019-05-05T06:51:34.261Z,5.62
2019-05-05T06:54:43.825Z,5.38
2019-05-05T06:57:53.932Z,5.52
2019-05-05T07:01:03.746Z,5.82
2019-05-05T07:04:13.842Z,6.21
2019-05-05T07:07:23.567Z,4.99
2019-05-05T07:10:33.716Z,6.72
2019-05-05T07:13:44.169Z,6.72
2019-05-05T07:21:23.896Z,7.62
2019-05-05T07:24:34.507Z,7.11
2019-05-05T07:27:44.267Z,7.44
2019-05-05T07:30:51.582Z,7.15
2019-05-05T07:33:59.665Z,6.15
2019-05-05T07:37:07.577Z,7.22
2019-05-05T07:40:15.932Z,6.95
2019-05-05T07:43:24.096Z,6.95
2019-05-05T07:46:34.468Z,7.49
2019-05-05T07:49:44.313Z,9.65
2019-05-05T07:52:54.555Z,8.32
2019-05-05T07:56:03.572Z,6.91
2019-05-05T07:59:11.634Z,6.64
2019-05-05T08:02:23.529Z,7.54
2019-05-05T08:05:33.396Z,8.84
2019-05-05T08:08:44.223Z,10.17
2019-05-05T08:11:51.670Z,9.75
2019-05-05T08:15:01.266Z,8.33
2019-05-05T08:18:44.712Z,7.99
2019-05-05T08:21:54.249Z,8.51
2019-05-05T08:25:11.277Z,7.43
2019-05-05T08:28:47.288Z,7.43
2019-05-05T08:32:17.349Z,7.43
2019-05-05T08:35:25.434Z,9.13
2019-05-05T08:38:34.592Z,9.98
2019-05-05T08:41:45.422Z,8.12
2019-05-05T08:44:54.101Z,8.32
2019-05-05T08:48:02.258Z,7.55
2019-05-05T08:51:11.631Z,7.93
2019-05-05T08:54:20.393Z,8.39
2019-05-05T08:57:27.443Z,9.73
2019-05-05T09:00:35.649Z,12.52
2019-05-05T09:03:44.530Z,13.07
2019-05-05T09:06:54.336Z,9.19
2019-05-05T09:10:03.724Z,11.45
2019-05-05T09:13:57.596Z,12.62
2019-05-05T09:17:06.103Z,9.78
2019-05-05T09:20:16.241Z,8.88
2019-05-05T09:23:24.498Z,10.25
2019-05-05T09:26:45.251Z,10.70
2019-05-05T09:29:54.406Z,10.70
2019-05-05T09:33:03.501Z,11.09
2019-05-05T09:36:13.779Z,11.62
2019-05-05T09:39:21.629Z,9.98
2019-05-05T09:42:30.021Z,9.98
2019-05-05T09:45:38.753Z,11.90
2019-05-05T09:48:46.549Z,12.03
2019-05-05T09:51:55.412Z,10.36
2019-05-05T09:55:03.842Z,10.36
2019-05-05T09:58:16.202Z,11.23
2019-05-05T10:01:25.556Z,9.07
2019-05-05T10:04:34.776Z,9.67
2019-05-05T10:07:45.529Z,9.67
2019-05-05T10:10:54.762Z,11.44
2019-05-05T10:14:04.012Z,11.44
2019-05-05T10:17:14.134Z,9.38
2019-05-05T10:20:24.504Z,10.15
2019-05-05T10:23:34.891Z,10.18
2019-05-05T10:26:44.591Z,9.01
2019-05-05T10:29:54.759Z,9.53
2019-05-05T10:33:08.746Z,9.53
2019-05-05T10:36:16.611Z,9.96
2019-05-05T10:39:33.358Z,13.64
2019-05-05T10:42:53.921Z,13.64
2019-05-05T10:46:03.897Z,14.86
2019-05-05T10:49:13.729Z,14.73
2019-05-05T10:52:22.464Z,14.77
2019-05-05T10:55:30.698Z,12.99
2019-05-05T10:58:40.551Z,14.81
2019-05-05T11:01:48.591Z,13.79
2019-05-05T11:04:58.252Z,13.55
2019-05-05T11:08:06.369Z,13.55
2019-05-05T11:11:13.799Z,13.02
2019-05-05T11:14:22.938Z,15.16
2019-05-05T11:17:31.243Z,15.17
2019-05-05T11:20:39.666Z,14.92
2019-05-05T11:23:47.665Z,15.24
2019-05-05T11:26:56.092Z,13.81
2019-05-05T11:30:14.302Z,12.77
2019-05-05T11:33:44.384Z,12.41
2019-05-05T11:37:13.391Z,10.79
2019-05-05T11:40:32.575Z,11.69
2019-05-05T11:43:41.202Z,12.39
2019-05-05T11:46:49.983Z,10.70
2019-05-05T11:50:00.070Z,12.93
2019-05-05T11:53:08.527Z,12.30
2019-05-05T11:56:16.619Z,12.93
2019-05-05T11:59:25.552Z,12.93
2019-05-05T12:02:36.803Z,10.00
2019-05-05T12:05:44.843Z,10.00
2019-05-05T12:08:54.494Z,11.17
2019-05-05T12:12:11.357Z,12.43
2019-05-05T12:15:21.525Z,11.35
2019-05-05T12:18:31.257Z,12.85
2019-05-05T12:21:39.694Z,10.10
2019-05-05T12:24:49.928Z,10.41
2019-05-05T12:28:05.567Z,11.44
2019-05-05T12:31:19.422Z,10.59
2019-05-05T12:34:28.249Z,10.59
2019-05-05T12:37:37.736Z,10.71
2019-05-05T12:40:46.774Z,10.71
2019-05-05T12:43:56.281Z,11.21
2019-05-05T12:47:34.312Z,11.69
2019-05-05T12:50:44.965Z,11.66
2019-05-05T12:53:54.713Z,11.66
2019-05-05T12:57:05.964Z,11.22
2019-05-05T13:00:15.984Z,10.57
2019-05-05T13:03:25.907Z,10.68
2019-05-05T13:06:36.635Z,10.79
2019-05-05T13:09:46.252Z,10.18
2019-05-05T13:12:54.616Z,10.17
2019-05-05T13:16:04.273Z,11.90
2019-05-05T13:19:48.979Z,11.90
2019-05-05T13:23:14.963Z,11.52
2019-05-05T13:26:42.587Z,12.73
2019-05-05T13:29:53.516Z,12.68
2019-05-05T13:33:03.567Z,11.37
2019-05-05T13:36:13.855Z,10.42
2019-05-05T13:39:24.589Z,11.28
2019-05-05T13:42:32.006Z,10.55
2019-05-05T13:45:48.393Z,10.38
2019-05-05T13:48:59.604Z,10.56
2019-05-05T13:52:08.651Z,9.71
2019-05-05T13:55:17.395Z,9.54
2019-05-05T13:58:26.792Z,9.78
2019-05-05T14:01:38.476Z,10.30
2019-05-05T14:04:49.012Z,9.41
2019-05-05T14:07:57.546Z,9.77
2019-05-05T14:11:06.311Z,10.39
2019-05-05T14:14:17.473Z,10.16
2019-05-05T14:17:27.237Z,9.75
2019-05-05T14:20:36.606Z,9.75
2019-05-05T14:24:07.468Z,10.40
2019-05-05T14:27:15.654Z,11.62
2019-05-05T14:30:56.178Z,11.62
2019-05-05T14:34:13.937Z,9.68
2019-05-05T14:40:48.392Z,10.08
2019-05-05T14:43:59.067Z,10.16
2019-05-05T14:47:08.458Z,9.97
2019-05-05T14:50:20.676Z,10.64
2019-05-05T14:53:30.485Z,10.64
2019-05-05T14:56:39.624Z,10.35
2019-05-05T14:59:47.507Z,10.03
2019-05-05T15:02:58.008Z,10.97
2019-05-05T15:06:17.650Z,10.97
2019-05-05T15:09:41.275Z,10.14
2019-05-05T15:13:00.287Z,11.10
2019-05-05T15:16:10.392Z,10.35
2019-05-05T15:19:19.473Z,10.99
2019-05-05T15:22:28.334Z,10.26
2019-05-05T15:25:37.102Z,9.03
2019-05-05T15:28:58.619Z,9.02
2019-05-05T15:31:56.491Z,9.25
2019-05-05T15:35:05.236Z,8.54
2019-05-05T15:38:13.849Z,9.00
2019-05-05T15:41:23.630Z,9.46
2019-05-05T15:44:34.589Z,9.25
2019-05-05T15:47:43.709Z,8.96
2019-05-05T15:50:54.490Z,9.27
2019-05-05T15:54:04.037Z,8.50
2019-05-05T15:57:18.052Z,9.06
2019-05-05T16:00:29.063Z,9.89
2019-05-05T16:03:41.240Z,9.34
2019-05-05T16:06:50.745Z,9.89
2019-05-05T16:09:59.103Z,12.42
2019-05-05T16:34:33.758Z,10.75
2019-05-05T16:37:43.009Z,9.99
2019-05-05T16:40:53.780Z,9.20
2019-05-05T16:44:02.571Z,9.05
2019-05-05T16:47:13.913Z,8.82
2019-05-05T16:50:25.327Z,8.93
2019-05-05T16:53:38.486Z,8.59
2019-05-05T16:56:48.267Z,8.96
2019-05-05T16:59:58.318Z,9.16
2019-05-05T17:03:07.798Z,9.18
2019-05-05T17:06:15.919Z,8.72
2019-05-05T17:09:24.840Z,8.54
2019-05-05T17:12:33.763Z,8.57
2019-05-05T17:16:10.441Z,8.04
2019-05-05T17:19:29.276Z,8.01
2019-05-05T17:22:57.398Z,7.76
2019-05-05T17:26:06.055Z,7.55
2019-05-05T17:29:14.617Z,7.89
2019-05-05T17:32:24.886Z,7.94
2019-05-05T17:35:33.708Z,8.13
2019-05-05T17:38:44.230Z,7.62
2019-05-05T17:42:17.645Z,7.79
2019-05-05T17:45:30.420Z,8.13
2019-05-05T17:48:46.816Z,8.13
2019-05-05T17:52:05.255Z,7.87
2019-05-05T17:55:28.443Z,7.78
2019-05-05T17:58:35.839Z,7.67
2019-05-05T18:01:44.236Z,7.61
2019-05-05T18:04:54.107Z,6.82
2019-05-05T18:08:01.361Z,6.82
2019-05-05T18:11:16.981Z,6.73
2019-05-05T18:14:27.002Z,6.54
2019-05-05T18:17:36.378Z,6.23
2019-05-05T18:20:45.114Z,6.17
2019-05-05T18:23:54.555Z,6.04
2019-05-05T18:27:06.606Z,5.67
2019-05-05T18:30:18.012Z,5.55
2019-05-05T18:33:28.761Z,5.39
2019-05-05T18:36:39.754Z,5.19
2019-05-05T18:39:52.113Z,4.92
2019-05-05T18:43:04.028Z,4.78
2019-05-05T18:46:14.257Z,4.31
2019-05-05T18:49:23.997Z,4.31
2019-05-05T18:52:35.652Z,4.22
2019-05-05T18:55:45.514Z,4.10
2019-05-05T18:58:54.350Z,3.90
2019-05-05T19:02:11.372Z,3.70
2019-05-05T19:05:38.723Z,3.34
2019-05-05T19:08:54.604Z,3.31
2019-05-05T19:12:04.148Z,3.02
2019-05-05T19:15:13.628Z,2.75
2019-05-05T19:18:24.331Z,2.75
2019-05-05T19:21:43.769Z,2.69
2019-05-05T19:24:54.724Z,2.41
2019-05-05T19:28:04.727Z,2.41
2019-05-05T19:31:14.086Z,2.29
2019-05-05T19:34:24.090Z,2.11
2019-05-05T19:37:33.571Z,1.90
2019-05-05T19:40:43.424Z,1.90
2019-05-05T19:43:55.102Z,1.80
2019-05-05T19:47:10.583Z,1.70
2019-05-05T19:50:27.303Z,1.53
2019-05-05T19:53:38.299Z,1.53
2019-05-05T19:56:46.610Z,1.47
2019-05-05T19:59:54.751Z,1.38
2019-05-05T20:03:05.135Z,1.38
2019-05-05T20:06:14.150Z,1.45
2019-05-05T20:09:25.585Z,1.57
2019-05-05T20:12:34.447Z,1.78
2019-05-05T20:15:48.053Z,1.78
2019-05-05T20:18:55.925Z,1.81
2019-05-05T20:22:04.158Z,1.84
2019-05-05T20:25:14.028Z,1.95
2019-05-05T20:28:24.047Z,1.99
2019-05-05T20:31:34.599Z,1.99
2019-05-05T20:35:21.304Z,2.19
2019-05-05T20:38:44.044Z,2.38
2019-05-05T20:41:54.341Z,2.38
2019-05-05T20:45:04.003Z,2.34
2019-05-05T20:48:13.026Z,2.38
2019-05-05T20:51:24.314Z,2.34
2019-05-05T20:54:32.702Z,2.18
2019-05-05T20:57:41.261Z,2.18
2019-05-05T21:00:49.620Z,2.37
2019-05-05T21:03:57.523Z,2.39
2019-05-05T21:07:06.287Z,2.39
2019-05-05T21:10:14.578Z,2.25
2019-05-05T21:13:22.766Z,2.45
2019-05-05T21:16:30.674Z,2.45
2019-05-05T21:19:38.571Z,2.38
2019-05-05T21:23:08.239Z,2.43
2019-05-05T21:26:44.932Z,2.43
2019-05-05T21:29:54.368Z,2.32
2019-05-05T21:33:04.378Z,2.35
2019-05-05T21:36:14.799Z,2.45
2019-05-05T21:39:24.881Z,2.44
2019-05-05T21:42:34.867Z,2.43
2019-05-05T21:45:44.455Z,2.41
2019-05-05T21:48:54.396Z,2.41
2019-05-05T21:52:18.462Z,2.35
2019-05-05T21:55:37.504Z,2.45
2019-05-05T21:58:46.558Z,2.52
2019-05-05T22:01:54.934Z,2.57
2019-05-05T22:05:04.038Z,2.57
2019-05-05T22:08:14.323Z,2.51
2019-05-05T22:11:24.285Z,2.43
2019-05-05T22:14:34.113Z,2.29
2019-05-05T22:17:44.634Z,2.29
2019-05-05T22:21:04.294Z,2.27
2019-05-05T22:24:22.432Z,2.23
2019-05-05T22:27:29.336Z,2.23
2019-05-05T22:30:37.706Z,2.26
2019-05-05T22:33:46.662Z,2.25
2019-05-05T22:36:54.577Z,2.20
2019-05-05T22:40:02.586Z,2.20
2019-05-05T22:43:10.707Z,2.35
2019-05-05T22:46:18.775Z,2.35
2019-05-05T22:49:26.589Z,2.32
2019-05-05T22:52:34.631Z,2.20
2019-05-05T22:55:43.924Z,2.20
2019-05-05T22:58:54.580Z,2.25
2019-05-05T23:02:03.965Z,2.31
2019-05-05T23:05:24.055Z,2.39
2019-05-05T23:08:32.550Z,2.43
2019-05-05T23:11:44.008Z,2.37
2019-05-05T23:14:52.048Z,2.37
2019-05-05T23:18:14.257Z,2.21
2019-05-05T23:21:34.305Z,1.98
2019-05-05T23:24:54.183Z,1.89
2019-05-05T23:28:04.071Z,1.77
2019-05-05T23:31:15.976Z,1.69
2019-05-05T23:34:24.232Z,1.57
2019-05-05T23:37:34.341Z,1.57
2019-05-05T23:40:42.469Z,1.56
2019-05-05T23:43:54.273Z,1.57
2019-05-05T23:47:01.846Z,1.64
2019-05-05T23:50:10.100Z,1.73
2019-05-05T23:53:18.012Z,1.65
2019-05-05T23:56:26.030Z,1.61
2019-05-05T23:59:33.903Z,1.55
